createdAt,value
2023-04-20T00:00:31.411Z,90166.09
2023-04-20T00:03:16.566Z,90164.63
2023-04-20T00:06:01.693Z,90160.84
2023-04-20T00:08:46.570Z,90152.38
2023-04-20T00:11:31.632Z,90153.44
2023-04-20T00:14:16.489Z,90147.94
2023-04-20T00:17:01.570Z,90146.81
2023-04-20T00:19:46.532Z,90148.69
2023-04-20T00:22:31.465Z,90142.25
2023-04-20T00:25:16.641Z,90145.84
2023-04-20T00:28:01.592Z,90140.25
2023-04-20T00:30:46.578Z,90138.25
2023-04-20T00:33:31.339Z,90135.94
2023-04-20T00:36:16.470Z,90134.38
2023-04-20T00:39:01.391Z,90126.13
2023-04-20T00:41:46.581Z,90126.66
2023-04-20T00:44:31.582Z,90127.72
2023-04-20T00:50:05.316Z,90121.91
2023-04-20T00:52:50.342Z,90113.25
2023-04-20T00:55:35.281Z,90115.69
2023-04-20T00:58:20.222Z,90114.53
2023-04-20T01:01:05.167Z,90111.06
2023-04-20T01:03:50.214Z,90106.09
2023-04-20T01:06:34.930Z,90103.16
2023-04-20T01:09:20.015Z,90109.69
2023-04-20T01:12:04.856Z,90098.63
2023-04-20T01:14:49.817Z,90091.00
2023-04-20T01:17:35.042Z,90087.75
2023-04-20T01:20:19.805Z,90091.94
2023-04-20T01:23:04.710Z,90089.13
2023-04-20T01:25:49.741Z,90094.28
2023-04-20T01:28:34.627Z,90088.56
2023-04-20T01:31:19.633Z,90074.94
2023-04-20T01:34:04.557Z,90069.47
2023-04-20T01:36:49.571Z,90073.28
2023-04-20T01:39:34.461Z,90069.78
2023-04-20T01:42:19.387Z,90068.63
2023-04-20T01:45:04.270Z,90070.84
2023-04-20T01:47:49.146Z,90069.13
2023-04-20T01:50:34.064Z,90066.63
2023-04-20T01:53:18.949Z,90063.06
2023-04-20T01:56:03.914Z,90063.50
2023-04-20T01:58:48.860Z,90055.38
2023-04-20T02:01:33.845Z,90061.44
2023-04-20T02:04:18.595Z,90046.72
2023-04-20T02:07:03.611Z,90052.09
2023-04-20T02:09:48.596Z,90051.22
2023-04-20T02:12:33.612Z,90052.56
2023-04-20T02:15:18.592Z,90050.53
2023-04-20T02:18:03.876Z,90046.84
2023-04-20T02:20:48.888Z,90045.06
2023-04-20T02:23:33.831Z,90043.06
2023-04-20T02:26:18.881Z,90041.28
2023-04-20T02:29:03.896Z,90041.06
2023-04-20T02:31:49.205Z,90033.38
2023-04-20T02:34:34.088Z,90032.41
2023-04-20T02:37:19.140Z,90030.09
2023-04-20T02:40:04.108Z,90031.88
2023-04-20T02:42:49.037Z,90027.22
2023-04-20T02:45:34.232Z,90034.19
2023-04-20T02:48:19.117Z,90034.19
2023-04-20T02:51:04.145Z,90027.75
2023-04-20T02:53:49.067Z,90027.09
2023-04-20T02:56:34.041Z,90031.53
2023-04-20T02:59:19.129Z,90017.72
2023-04-20T03:02:04.582Z,90022.25
2023-04-20T03:04:49.547Z,90022.25
2023-04-20T03:07:34.319Z,90020.34
2023-04-20T03:10:19.406Z,90024.75
2023-04-20T03:13:04.265Z,90019.06
2023-04-20T03:15:49.161Z,90022.34
2023-04-20T03:18:34.238Z,90007.25
2023-04-20T03:21:19.257Z,90013.28
2023-04-20T03:24:04.136Z,90010.66
2023-04-20T03:26:49.093Z,90013.59
2023-04-20T03:29:34.089Z,90006.22
2023-04-20T03:32:19.022Z,90003.97
2023-04-20T03:35:04.184Z,90002.41
2023-04-20T03:37:49.134Z,90004.91
2023-04-20T03:40:34.282Z,90005.38
2023-04-20T03:43:19.096Z,90002.97
2023-04-20T03:46:04.124Z,89997.06
2023-04-20T03:48:48.959Z,89994.78
2023-04-20T03:51:33.826Z,89999.31
2023-04-20T03:54:18.925Z,89992.59
2023-04-20T03:57:04.001Z,89989.03
2023-04-20T03:59:49.103Z,89993.88
2023-04-20T04:02:34.986Z,89988.09
2023-04-20T04:05:22.102Z,89982.53
2023-04-20T04:08:06.887Z,89985.72
2023-04-20T04:10:51.735Z,89983.59
2023-04-20T04:13:36.584Z,89985.09
2023-04-20T04:16:21.482Z,89978.34
2023-04-20T04:19:06.613Z,89978.56
2023-04-20T04:21:53.536Z,89979.31
2023-04-20T04:24:38.511Z,89983.53
2023-04-20T04:27:23.384Z,89982.78
2023-04-20T04:30:08.129Z,89991.72
2023-04-20T04:32:53.039Z,89988.78
2023-04-20T04:35:38.049Z,89982.78
2023-04-20T04:38:22.992Z,89989.81
2023-04-20T04:41:07.956Z,89993.28
2023-04-20T04:43:52.920Z,89986.56
2023-04-20T04:46:37.846Z,89991.00
2023-04-20T04:49:22.819Z,89980.78
2023-04-20T04:52:07.797Z,89982.34
2023-04-20T04:54:52.874Z,89986.44
2023-04-20T04:57:37.850Z,89989.63
2023-04-20T05:00:24.721Z,89990.34
2023-04-20T05:03:09.752Z,89983.41
2023-04-20T05:05:54.576Z,89988.66
2023-04-20T05:08:39.515Z,89981.41
2023-04-20T05:11:24.636Z,89986.16
2023-04-20T05:14:09.556Z,89987.84
2023-04-20T05:16:54.515Z,89989.31
2023-04-20T05:19:39.343Z,89984.88
2023-04-20T05:22:24.378Z,89984.16
2023-04-20T05:25:09.503Z,89985.50
2023-04-20T05:27:55.275Z,89987.50
2023-04-20T05:30:40.268Z,89989.31
2023-04-20T05:33:25.309Z,89987.50
2023-04-20T05:36:10.248Z,89984.25
2023-04-20T05:38:55.114Z,89986.38
2023-04-20T05:41:39.929Z,89984.53
2023-04-20T05:44:24.948Z,89984.44
2023-04-20T05:47:09.996Z,89983.28
2023-04-20T05:49:55.062Z,89975.88
2023-04-20T05:52:39.880Z,89978.31
2023-04-20T05:55:24.830Z,89984.03
2023-04-20T05:58:09.684Z,89985.72
2023-04-20T06:00:54.749Z,89984.63
2023-04-20T06:03:39.653Z,89978.66
2023-04-20T06:06:24.528Z,89984.44
2023-04-20T06:09:09.452Z,89979.63
2023-04-20T06:11:56.636Z,89981.84
2023-04-20T06:14:41.730Z,89986.59
2023-04-20T06:17:26.836Z,89985.72
2023-04-20T06:20:11.672Z,89988.66
2023-04-20T06:22:56.478Z,89990.56
2023-04-20T06:25:41.612Z,89990.78
2023-04-20T06:28:26.499Z,89987.53
2023-04-20T06:31:11.443Z,89987.00
2023-04-20T06:33:56.484Z,89992.38
2023-04-20T06:36:41.478Z,89994.41
2023-04-20T06:39:26.537Z,89989.13
2023-04-20T06:42:11.622Z,89990.91
2023-04-20T06:44:56.681Z,89983.56
2023-04-20T06:47:41.712Z,89987.31
2023-04-20T06:50:26.637Z,89994.47
2023-04-20T06:53:11.582Z,89990.25
2023-04-20T06:55:56.527Z,89995.50
2023-04-20T06:58:41.575Z,89981.69
2023-04-20T07:01:26.437Z,89984.34
2023-04-20T07:04:11.563Z,89982.78
2023-04-20T07:06:56.358Z,89989.41
2023-04-20T07:09:41.476Z,89987.50
2023-04-20T07:12:26.331Z,89975.53
2023-04-20T07:15:11.194Z,89981.22
2023-04-20T07:17:56.278Z,89975.53
2023-04-20T07:20:41.140Z,89973.97
2023-04-20T07:23:26.249Z,89976.38
2023-04-20T07:26:11.250Z,89979.44
2023-04-20T07:28:56.086Z,89976.38
2023-04-20T07:31:46.741Z,89977.72
2023-04-20T07:34:53.360Z,89967.31
2023-04-20T07:37:40.677Z,89967.63
2023-04-20T07:43:40.419Z,89966.88
2023-04-20T07:46:25.661Z,89955.19
2023-04-20T07:49:10.396Z,89955.31
2023-04-20T07:52:00.827Z,89946.66
2023-04-20T07:54:54.856Z,89945.53
2023-04-20T07:57:40.016Z,89939.09
2023-04-20T08:00:25.178Z,89938.38
2023-04-20T08:03:10.300Z,89936.47
2023-04-20T08:05:55.567Z,89932.31
2023-04-20T08:08:40.453Z,89935.31
2023-04-20T08:11:25.563Z,89935.09
2023-04-20T08:14:10.530Z,89932.47
2023-04-20T08:16:55.573Z,89931.06
2023-04-20T08:19:42.357Z,89921.53
2023-04-20T08:22:29.408Z,89919.00
2023-04-20T08:25:14.540Z,89923.75
2023-04-20T08:27:59.615Z,89919.59
2023-04-20T08:30:44.522Z,89919.75
2023-04-20T08:33:29.599Z,89916.63
2023-04-20T08:36:14.624Z,89918.53
2023-04-20T08:38:59.732Z,89914.19
2023-04-20T08:41:44.550Z,89912.00
2023-04-20T08:44:29.431Z,89905.47
2023-04-20T08:47:14.352Z,89908.47
2023-04-20T08:50:00.580Z,89900.84
2023-04-20T08:52:45.236Z,89895.69
2023-04-20T08:55:30.202Z,89897.41
2023-04-20T08:58:15.313Z,89901.16
2023-04-20T09:00:59.992Z,89906.75
2023-04-20T09:03:45.002Z,89912.47
2023-04-20T09:06:29.940Z,89906.44
2023-04-20T09:09:14.759Z,89906.69
2023-04-20T09:11:59.793Z,89900.56
2023-04-20T09:14:44.753Z,89899.06
2023-04-20T09:17:29.853Z,89898.38
2023-04-20T09:20:14.725Z,89903.81
2023-04-20T09:22:59.603Z,89907.09
2023-04-20T09:25:44.523Z,89903.81
2023-04-20T09:28:29.366Z,89906.44
2023-04-20T09:31:15.096Z,89907.84
2023-04-20T09:34:00.300Z,89907.09
2023-04-20T09:36:45.277Z,89909.44
2023-04-20T09:39:30.373Z,89907.81
2023-04-20T09:42:15.257Z,89910.59
2023-04-20T09:45:00.084Z,89920.31
2023-04-20T09:47:44.974Z,89914.19
2023-04-20T09:50:41.769Z,89922.06
2023-04-20T09:53:30.970Z,89920.38
2023-04-20T09:56:16.157Z,89922.94
2023-04-20T09:59:01.170Z,89925.00
2023-04-20T10:01:49.734Z,89926.88
2023-04-20T10:04:45.022Z,89932.28
2023-04-20T10:07:30.317Z,89925.06
2023-04-20T10:10:15.437Z,89931.03
2023-04-20T10:13:00.062Z,89937.66
2023-04-20T10:15:45.188Z,89936.91
2023-04-20T10:18:30.803Z,89941.06
2023-04-20T10:21:15.981Z,89943.06
2023-04-20T10:24:00.878Z,89939.94
2023-04-20T10:26:45.794Z,89938.66
2023-04-20T10:29:30.681Z,89943.25
2023-04-20T10:32:15.474Z,89937.03
2023-04-20T10:35:00.420Z,89944.16
2023-04-20T10:37:45.421Z,89937.31
2023-04-20T10:40:30.363Z,89942.53
2023-04-20T10:43:15.150Z,89934.44
2023-04-20T10:46:00.195Z,89939.78
2023-04-20T10:48:45.150Z,89941.19
2023-04-20T10:51:30.061Z,89940.19
2023-04-20T10:54:16.960Z,89943.03
2023-04-20T10:57:02.957Z,89944.72
2023-04-20T10:59:48.042Z,89947.88
2023-04-20T11:02:33.308Z,89942.94
2023-04-20T11:05:18.222Z,89941.00
2023-04-20T11:08:03.047Z,89938.19
2023-04-20T11:10:47.938Z,89940.06
2023-04-20T11:13:32.898Z,89937.69
2023-04-20T11:16:18.053Z,89927.81
2023-04-20T11:19:03.087Z,89925.75
2023-04-20T11:21:48.055Z,89926.09
2023-04-20T11:24:33.119Z,89927.63
2023-04-20T11:27:17.960Z,89922.97
2023-04-20T11:30:02.963Z,89924.84
2023-04-20T11:32:47.993Z,89925.25
2023-04-20T11:35:32.924Z,89919.34
2023-04-20T11:38:17.660Z,89908.00
2023-04-20T11:41:02.717Z,89911.34
2023-04-20T11:43:47.722Z,89909.66
2023-04-20T11:46:32.635Z,89920.31
2023-04-20T11:49:17.919Z,89917.25
2023-04-20T11:52:02.817Z,89929.34
2023-04-20T11:54:47.855Z,89920.75
2023-04-20T11:57:32.814Z,89926.25
2023-04-20T12:00:17.938Z,89928.81
2023-04-20T12:03:02.988Z,89923.03
2023-04-20T12:05:48.165Z,89925.13
2023-04-20T12:08:33.056Z,89926.00
2023-04-20T12:11:18.064Z,89922.91
2023-04-20T12:14:03.151Z,89934.63
2023-04-20T12:16:48.078Z,89934.22
2023-04-20T12:19:33.041Z,89928.63
2023-04-20T12:22:17.782Z,89930.84
2023-04-20T12:25:02.981Z,89928.53
2023-04-20T12:27:49.441Z,89932.03
2023-04-20T12:30:34.662Z,89933.91
2023-04-20T12:33:19.780Z,89939.59
2023-04-20T12:36:04.610Z,89937.28
2023-04-20T12:38:49.605Z,89936.09
2023-04-20T12:41:34.641Z,89927.88
2023-04-20T12:44:19.675Z,89938.66
2023-04-20T12:47:04.408Z,89935.19
2023-04-20T12:49:49.179Z,89939.09
2023-04-20T12:52:34.086Z,89942.13
2023-04-20T12:55:19.052Z,89940.88
2023-04-20T12:58:04.105Z,89942.56
2023-04-20T13:00:49.042Z,89949.59
2023-04-20T13:03:34.159Z,89951.31
2023-04-20T13:06:19.371Z,89955.31
2023-04-20T13:09:04.269Z,89952.88
2023-04-20T13:11:49.303Z,89966.56
2023-04-20T13:14:34.547Z,89963.28
2023-04-20T13:17:19.334Z,89974.78
2023-04-20T13:20:04.241Z,89975.66
2023-04-20T13:22:57.558Z,89979.19
2023-04-20T13:25:43.256Z,89983.06
2023-04-20T13:28:28.196Z,89993.41
2023-04-20T13:31:13.177Z,89996.47
2023-04-20T13:33:58.284Z,90003.94
2023-04-20T13:36:43.199Z,90005.81
2023-04-20T13:39:28.272Z,90010.47
2023-04-20T13:42:13.191Z,90019.53
2023-04-20T13:44:58.097Z,90012.66
2023-04-20T13:47:43.001Z,90009.59
2023-04-20T13:50:27.883Z,90022.53
2023-04-20T13:53:12.641Z,90018.66
2023-04-20T13:55:57.654Z,90025.03
2023-04-20T13:58:42.771Z,90023.56
2023-04-20T14:01:27.857Z,90034.97
2023-04-20T14:04:12.828Z,90033.00
2023-04-20T14:06:57.655Z,90037.53
2023-04-20T14:09:42.845Z,90038.03
2023-04-20T14:12:27.751Z,90029.81
2023-04-20T14:15:12.783Z,90037.06
2023-04-20T14:17:57.737Z,90028.97
2023-04-20T14:20:42.593Z,90040.66
2023-04-20T14:23:27.652Z,90040.25
2023-04-20T14:26:12.578Z,90038.97
2023-04-20T14:28:57.665Z,90032.41
2023-04-20T14:31:42.465Z,90045.59
2023-04-20T14:34:27.590Z,90047.63
2023-04-20T14:37:12.548Z,90047.28
2023-04-20T14:39:57.513Z,90055.94
2023-04-20T14:42:42.672Z,90060.78
2023-04-20T14:45:27.507Z,90069.31
2023-04-20T14:48:12.493Z,90054.19
2023-04-20T14:50:57.379Z,90059.03
2023-04-20T14:53:42.455Z,90059.53
2023-04-20T14:56:27.791Z,90064.06
2023-04-20T14:59:12.799Z,90056.16
2023-04-20T15:02:02.977Z,90051.19
2023-04-20T15:04:48.535Z,90048.50
2023-04-20T15:07:33.683Z,90054.13
2023-04-20T15:10:18.697Z,90044.03
2023-04-20T15:13:03.561Z,90050.56
2023-04-20T15:15:49.657Z,90040.63
2023-04-20T15:18:35.863Z,90050.09
2023-04-20T15:21:20.908Z,90048.03
2023-04-20T15:24:05.942Z,90046.84
2023-04-20T15:26:50.854Z,90036.41
2023-04-20T15:29:35.764Z,90039.38
2023-04-20T15:32:20.613Z,90040.41
2023-04-20T15:35:05.508Z,90036.94
2023-04-20T15:37:50.277Z,90036.91
2023-04-20T15:40:35.280Z,90034.69
2023-04-20T15:43:20.217Z,90038.00
2023-04-20T15:46:05.188Z,90031.44
2023-04-20T15:48:50.089Z,90025.59
2023-04-20T15:51:35.062Z,90027.00
2023-04-20T15:54:20.322Z,90034.31
2023-04-20T15:57:05.598Z,90031.81
2023-04-20T15:59:50.532Z,90029.91
2023-04-20T16:02:35.605Z,90027.81
2023-04-20T16:05:20.439Z,90031.59
2023-04-20T16:08:05.390Z,90028.22
2023-04-20T16:10:50.354Z,90039.16
2023-04-20T16:13:35.274Z,90029.47
2023-04-20T16:16:20.355Z,90028.41
2023-04-20T16:19:05.480Z,90031.44
2023-04-20T16:21:50.322Z,90037.53
2023-04-20T16:24:35.251Z,90031.47
2023-04-20T16:27:20.222Z,90021.81
2023-04-20T16:30:05.207Z,90021.47
2023-04-20T16:32:50.287Z,90029.69
2023-04-20T16:35:35.001Z,90022.00
2023-04-20T16:38:20.194Z,90036.34
2023-04-20T16:41:05.206Z,90027.91
2023-04-20T16:43:50.143Z,90027.47
2023-04-20T16:46:34.959Z,90027.38
2023-04-20T16:49:19.942Z,90021.91
2023-04-20T16:52:04.739Z,90020.13
2023-04-20T16:54:49.721Z,90024.94
2023-04-20T16:57:34.830Z,90031.69
2023-04-20T17:00:19.664Z,90021.16
2023-04-20T17:03:04.895Z,90022.31
2023-04-20T17:05:50.025Z,90026.31
2023-04-20T17:08:35.086Z,90024.72
2023-04-20T17:11:19.889Z,90025.59
2023-04-20T17:14:04.864Z,90023.91
2023-04-20T17:16:49.839Z,90030.84
2023-04-20T17:19:34.748Z,90028.84
2023-04-20T17:22:19.714Z,90037.69
2023-04-20T17:25:05.791Z,90033.47
2023-04-20T17:27:52.108Z,90034.44
2023-04-20T17:30:37.064Z,90048.78
2023-04-20T17:33:22.107Z,90043.59
2023-04-20T17:36:07.071Z,90047.81
2023-04-20T17:38:52.074Z,90046.56
2023-04-20T17:41:37.025Z,90043.50
2023-04-20T17:44:22.093Z,90049.59
2023-04-20T17:47:07.102Z,90050.88
2023-04-20T17:49:51.864Z,90054.88
2023-04-20T17:52:36.882Z,90062.03
2023-04-20T17:55:21.769Z,90062.88
2023-04-20T17:58:06.785Z,90070.19
2023-04-20T18:00:51.582Z,90068.03
2023-04-20T18:03:36.666Z,90076.25
2023-04-20T18:06:21.532Z,90075.44
2023-04-20T18:09:06.232Z,90076.25
2023-04-20T18:11:51.231Z,90076.16
2023-04-20T18:14:36.188Z,90072.03
2023-04-20T18:17:21.197Z,90069.97
2023-04-20T18:20:06.136Z,90066.28
2023-04-20T18:22:51.110Z,90070.59
2023-04-20T18:25:36.034Z,90060.84
2023-04-20T18:28:21.114Z,90063.94
2023-04-20T18:31:06.195Z,90067.53
2023-04-20T18:33:50.962Z,90075.47
2023-04-20T18:36:35.916Z,90077.50
2023-04-20T18:39:20.936Z,90072.38
2023-04-20T18:42:05.913Z,90059.22
2023-04-20T18:44:50.813Z,90065.06
2023-04-20T18:47:35.720Z,90067.88
2023-04-20T18:50:20.658Z,90075.06
2023-04-20T18:53:05.111Z,90063.03
2023-04-20T18:55:50.150Z,90071.53
2023-04-20T18:58:34.969Z,90075.03
2023-04-20T19:01:20.142Z,90078.81
2023-04-20T19:04:05.217Z,90080.78
2023-04-20T19:06:50.136Z,90083.16
2023-04-20T19:09:34.928Z,90085.56
2023-04-20T19:12:21.017Z,90091.22
2023-04-20T19:15:06.177Z,90091.75
2023-04-20T19:17:51.170Z,90092.25
2023-04-20T19:20:39.873Z,90081.53
2023-04-20T19:23:26.706Z,90092.50
2023-04-20T19:26:11.565Z,90088.06
2023-04-20T19:28:56.479Z,90093.56
2023-04-20T19:31:41.130Z,90087.44
2023-04-20T19:34:26.106Z,90095.22
2023-04-20T19:37:11.173Z,90093.56
2023-04-20T19:39:55.856Z,90092.38
2023-04-20T19:42:40.668Z,90095.56
2023-04-20T19:45:25.883Z,90099.75
2023-04-20T19:48:10.931Z,90103.72
2023-04-20T19:50:56.111Z,90095.09
2023-04-20T19:53:41.124Z,90099.31
2023-04-20T19:56:25.802Z,90108.28
2023-04-20T19:59:12.026Z,90112.72
2023-04-20T20:01:57.280Z,90117.13
2023-04-20T20:04:42.436Z,90117.34
2023-04-20T20:07:27.324Z,90108.91
2023-04-20T20:10:12.193Z,90111.88
2023-04-20T20:12:57.334Z,90113.56
2023-04-20T20:15:42.520Z,90113.47
2023-04-20T20:18:27.528Z,90111.91
2023-04-20T20:21:12.486Z,90109.38
2023-04-20T20:23:57.322Z,90114.34
2023-04-20T20:26:42.636Z,90114.34
2023-04-20T20:29:27.663Z,90110.13
2023-04-20T20:32:12.765Z,90099.03
2023-04-20T20:34:57.586Z,90091.38
2023-04-20T20:37:42.514Z,90093.16
2023-04-20T20:40:27.296Z,90109.53
2023-04-20T20:43:12.115Z,90109.13
2023-04-20T20:45:57.163Z,90114.59
2023-04-20T20:48:42.177Z,90108.31
2023-04-20T20:51:27.193Z,90119.34
2023-04-20T20:54:12.060Z,90124.38
2023-04-20T20:56:56.924Z,90128.28
2023-04-20T20:59:41.660Z,90132.22
2023-04-20T21:02:26.669Z,90132.97
2023-04-20T21:05:11.415Z,90136.63
2023-04-20T21:07:56.381Z,90145.28
2023-04-20T21:10:41.469Z,90148.75
2023-04-20T21:13:26.456Z,90153.19
2023-04-20T21:16:11.530Z,90152.53
2023-04-20T21:18:56.312Z,90147.72
2023-04-20T21:21:41.204Z,90140.94
2023-04-20T21:24:26.193Z,90133.38
2023-04-20T21:27:11.197Z,90136.22
2023-04-20T21:29:55.934Z,90129.47
2023-04-20T21:32:40.932Z,90138.84
2023-04-20T21:35:25.760Z,90148.31
2023-04-20T21:38:10.816Z,90147.16
2023-04-20T21:40:55.712Z,90136.72
2023-04-20T21:43:41.799Z,90138.28
2023-04-20T21:46:28.587Z,90145.34
2023-04-20T21:49:13.461Z,90139.50
2023-04-20T21:51:58.389Z,90136.03
2023-04-20T21:54:43.286Z,90128.56
2023-04-20T21:57:28.172Z,90124.25
2023-04-20T22:00:13.012Z,90118.03
2023-04-20T22:02:57.995Z,90129.94
2023-04-20T22:05:42.931Z,90143.84
2023-04-20T22:08:27.764Z,90151.03
2023-04-20T22:11:12.735Z,90142.38
2023-04-20T22:13:57.760Z,90149.66
2023-04-20T22:16:42.731Z,90167.41
2023-04-20T22:19:27.679Z,90165.13
2023-04-20T22:22:12.470Z,90165.78
2023-04-20T22:24:57.472Z,90156.84
2023-04-20T22:27:42.303Z,90150.94
2023-04-20T22:30:27.302Z,90166.44
2023-04-20T22:33:12.326Z,90173.03
2023-04-20T22:35:57.267Z,90158.47
2023-04-20T22:38:42.251Z,90164.97
2023-04-20T22:41:27.149Z,90168.44
2023-04-20T22:44:12.148Z,90157.44
2023-04-20T22:46:56.984Z,90155.66
2023-04-20T22:49:41.957Z,90166.25
2023-04-20T22:52:26.644Z,90161.34
2023-04-20T22:55:11.607Z,90157.13
2023-04-20T22:57:56.592Z,90147.97
2023-04-20T23:00:41.479Z,90152.41
2023-04-20T23:03:26.711Z,90156.22
2023-04-20T23:06:11.692Z,90150.47
2023-04-20T23:08:56.679Z,90140.78
2023-04-20T23:11:41.671Z,90127.84
2023-04-20T23:14:26.622Z,90127.94
2023-04-20T23:17:11.499Z,90130.66
2023-04-20T23:19:56.453Z,90129.41
2023-04-20T23:22:41.230Z,90135.81
2023-04-20T23:25:26.164Z,90130.34
2023-04-20T23:28:11.261Z,90130.66
2023-04-20T23:30:56.183Z,90124.69
2023-04-20T23:33:41.133Z,90121.78
2023-04-20T23:36:25.992Z,90122.41
2023-04-20T23:39:10.918Z,90125.13
2023-04-20T23:41:55.738Z,90127.75
2023-04-20T23:44:40.838Z,90127.81
2023-04-20T23:47:25.635Z,90131.13
2023-04-20T23:50:10.651Z,90126.25
2023-04-20T23:52:55.784Z,90125.28
2023-04-20T23:55:40.869Z,90131.28
2023-04-20T23:58:26.019Z,90134.06
